Time;durP1;ratioP1;P1;durP2;ratioP2;P2;SDS_P1;SDS_P2;PMS_P1;PMS_P2;Temp;Humidity;BMP_temperature;BMP_pressure;BME280_temperature;BME280_humidity;BME280_pressure;Samples;Min_cycle;Max_cycle;Signal;HPM_P1;HPM_P2
2022/05/26 00:00:30;;;;;;;1.50;1.40;;;15.70;74.90;;;;;;4943270;29;20195;-68
2022/05/26 00:02:56;;;;;;;2.17;1.67;;;15.70;74.80;;;;;;4934184;29;20205;-69
2022/05/26 00:05:25;;;;;;;2.90;1.50;;;15.70;74.70;;;;;;4942769;29;20194;-75
2022/05/26 00:07:51;;;;;;;3.27;1.77;;;15.70;74.50;;;;;;4931731;29;20553;-75
2022/05/26 00:10:17;;;;;;;1.97;1.70;;;15.70;74.40;;;;;;4935678;29;20218;-76
2022/05/26 00:12:43;;;;;;;1.93;1.27;;;15.70;74.60;;;;;;4943855;28;20217;-75
2022/05/26 00:15:09;;;;;;;1.40;1.30;;;15.70;74.60;;;;;;4937762;28;20231;-73
2022/05/26 00:17:36;;;;;;;3.77;1.50;;;15.70;74.80;;;;;;4901355;28;20206;-72
2022/05/26 00:20:04;;;;;;;1.20;1.10;;;15.70;75.00;;;;;;4934578;29;20771;-74
2022/05/26 00:22:29;;;;;;;1.40;1.30;;;15.70;75.60;;;;;;4934166;28;20238;-74
2022/05/26 00:24:54;;;;;;;0.90;0.90;;;15.70;75.40;;;;;;4931172;29;20331;-75
2022/05/26 00:27:20;;;;;;;1.93;1.30;;;15.60;75.60;;;;;;4934224;29;20203;-73
2022/05/26 00:29:45;;;;;;;4.27;1.60;;;15.60;75.40;;;;;;4931883;29;20233;-71
2022/05/26 00:32:11;;;;;;;2.73;1.20;;;15.70;75.40;;;;;;4932122;29;20692;-74
2022/05/26 00:34:36;;;;;;;1.60;1.50;;;15.60;75.70;;;;;;4936990;28;20209;-74
2022/05/26 00:37:07;;;;;;;2.83;1.40;;;15.60;76.30;;;;;;4941111;29;20234;-71
2022/05/26 00:39:32;;;;;;;1.43;1.33;;;15.60;77.10;;;;;;4930344;29;20674;-72
2022/05/26 00:42:01;;;;;;;1.60;1.50;;;15.60;77.50;;;;;;4929356;29;20210;-70
2022/05/26 00:44:28;;;;;;;3.70;1.60;;;15.60;78.20;;;;;;4934984;28;20290;-71
2022/05/26 00:47:02;;;;;;;1.90;1.60;;;15.50;78.80;;;;;;4935584;28;20235;-72
2022/05/26 00:49:51;;;;;;;2.67;1.80;;;15.50;79.30;;;;;;4912920;29;20200;-73
2022/05/26 00:52:27;;;;;;;2.43;1.17;;;15.50;79.90;;;;;;4925020;29;20229;-68
2022/05/26 00:54:54;;;;;;;2.67;1.53;;;15.50;80.00;;;;;;4931119;29;20697;-69
2022/05/26 00:57:24;;;;;;;2.63;1.80;;;15.50;80.10;;;;;;4937155;29;20257;-65
2022/05/26 01:00:04;;;;;;;1.87;1.77;;;15.50;80.50;;;;;;4932446;29;20301;-65
2022/05/26 01:02:34;;;;;;;1.80;1.50;;;15.50;80.60;;;;;;4932200;29;20228;-63
2022/05/26 01:05:08;;;;;;;1.60;1.50;;;15.40;80.80;;;;;;4921530;29;20194;-64
2022/05/26 01:07:36;;;;;;;4.30;2.00;;;15.40;81.30;;;;;;4925347;29;20313;-64
2022/05/26 01:10:03;;;;;;;1.80;1.37;;;15.40;81.10;;;;;;4929819;28;20218;-64
2022/05/26 01:12:28;;;;;;;2.70;1.80;;;15.30;80.90;;;;;;4937022;29;20287;-64
2022/05/26 01:14:59;;;;;;;1.50;1.30;;;15.40;80.70;;;;;;4940066;29;20199;-64
2022/05/26 01:17:49;;;;;;;1.23;1.07;;;15.40;79.80;;;;;;4936420;29;20306;-66
2022/05/26 01:20:34;;;;;;;2.03;1.33;;;15.50;78.90;;;;;;4945412;29;20653;-65
2022/05/26 01:23:30;;;;;;;1.00;1.00;;;15.50;78.30;;;;;;4932682;29;20226;-65
2022/05/26 01:26:04;;;;;;;1.03;0.80;;;15.60;77.50;;;;;;4937031;29;20202;-65
2022/05/26 01:29:06;;;;;;;1.70;1.30;;;15.70;77.00;;;;;;4943913;29;20198;-65
2022/05/26 01:31:37;;;;;;;1.27;0.93;;;15.70;77.40;;;;;;4920997;29;20277;-64
2022/05/26 01:34:30;;;;;;;1.23;1.13;;;15.70;77.20;;;;;;4929584;29;20589;-65
2022/05/26 01:37:01;;;;;;;4.73;1.63;;;15.70;77.00;;;;;;4929569;28;20210;-65
2022/05/26 01:39:44;;;;;;;1.53;1.43;;;15.70;77.20;;;;;;4929067;29;20278;-65
2022/05/26 01:42:36;;;;;;;1.40;1.30;;;15.70;77.10;;;;;;4929948;29;20306;-66
2022/05/26 01:45:08;;;;;;;1.03;1.00;;;15.70;77.00;;;;;;4935392;28;20649;-65
2022/05/26 01:47:44;;;;;;;1.23;1.13;;;15.60;77.50;;;;;;4930735;29;20323;-65
2022/05/26 01:50:36;;;;;;;2.50;0.93;;;15.60;77.40;;;;;;4926748;29;20244;-65
2022/05/26 01:53:18;;;;;;;2.50;1.43;;;15.70;77.50;;;;;;4936855;29;20220;-64
2022/05/26 01:55:56;;;;;;;0.97;0.97;;;15.70;77.70;;;;;;4938797;29;20201;-65
2022/05/26 01:58:43;;;;;;;2.47;1.03;;;15.70;77.20;;;;;;4925988;29;20698;-65
2022/05/26 02:01:21;;;;;;;2.87;1.07;;;15.70;76.90;;;;;;4921768;29;20657;-65
2022/05/26 02:03:49;;;;;;;1.57;1.10;;;15.70;76.80;;;;;;4916996;29;20232;-64
2022/05/26 02:06:24;;;;;;;1.47;0.93;;;15.70;76.80;;;;;;4938267;28;20222;-65
2022/05/26 02:09:10;;;;;;;0.93;0.90;;;15.80;77.00;;;;;;4932359;28;20225;-65
2022/05/26 02:11:42;;;;;;;2.43;1.10;;;15.80;76.90;;;;;;4927562;29;20201;-65
2022/05/26 02:14:14;;;;;;;1.73;1.20;;;15.90;76.60;;;;;;4939955;28;20277;-65
2022/05/26 02:16:57;;;;;;;6.70;1.13;;;15.80;76.60;;;;;;4936664;29;20242;-67
2022/05/26 02:19:33;;;;;;;0.80;0.80;;;15.80;76.70;;;;;;4934194;29;20341;-65
2022/05/26 02:22:31;;;;;;;0.83;0.83;;;15.80;77.00;;;;;;4935756;29;21211;-65
2022/05/26 02:25:07;;;;;;;1.27;1.17;;;15.80;76.90;;;;;;4928481;29;20187;-65
2022/05/26 02:27:35;;;;;;;1.97;1.00;;;15.80;77.00;;;;;;4936220;29;20707;-65
2022/05/26 02:30:01;;;;;;;0.70;0.70;;;15.90;77.30;;;;;;4942215;28;20194;-65
2022/05/26 02:32:39;;;;;;;1.27;1.10;;;15.80;77.70;;;;;;4935839;28;20208;-65
2022/05/26 02:35:12;;;;;;;0.80;0.80;;;15.80;77.80;;;;;;4928954;29;20198;-65
2022/05/26 02:37:39;;;;;;;0.93;0.90;;;15.80;78.10;;;;;;4936040;29;20205;-65
2022/05/26 02:40:07;;;;;;;1.00;1.00;;;15.80;77.90;;;;;;4934744;28;20709;-65
2022/05/26 02:42:33;;;;;;;1.90;1.20;;;15.80;77.90;;;;;;4936399;28;20213;-65
2022/05/26 02:44:59;;;;;;;1.03;0.83;;;15.90;78.10;;;;;;4936277;28;20198;-65
2022/05/26 02:47:45;;;;;;;0.97;0.97;;;15.90;78.30;;;;;;4934963;28;20556;-65
2022/05/26 02:50:26;;;;;;;1.67;1.57;;;15.80;78.50;;;;;;4938474;29;20186;-66
2022/05/26 02:53:04;;;;;;;2.47;0.87;;;15.80;78.60;;;;;;4942721;29;20218;-66
2022/05/26 02:56:08;;;;;;;1.50;1.07;;;15.80;79.00;;;;;;4919768;29;20201;-66
2022/05/26 02:58:46;;;;;;;1.43;1.10;;;15.90;78.90;;;;;;4937342;29;20715;-66
2022/05/26 03:01:34;;;;;;;1.77;1.10;;;15.80;78.90;;;;;;4922909;29;20197;-65
2022/05/26 03:04:11;;;;;;;2.73;1.23;;;15.90;79.00;;;;;;4931628;28;20621;-65
2022/05/26 03:06:42;;;;;;;1.07;1.00;;;15.90;79.10;;;;;;4929318;29;20194;-66
2022/05/26 03:09:09;;;;;;;3.57;0.90;;;15.90;79.30;;;;;;4928714;29;20222;-62
2022/05/26 03:11:50;;;;;;;0.97;0.87;;;15.90;79.30;;;;;;4934813;28;20293;-68
2022/05/26 03:14:18;;;;;;;2.07;1.20;;;15.90;79.40;;;;;;4936489;28;20202;-69
2022/05/26 03:16:43;;;;;;;1.13;0.90;;;15.90;79.50;;;;;;4927780;29;20207;-69
2022/05/26 03:19:10;;;;;;;1.63;1.17;;;16.00;79.60;;;;;;4934305;29;20329;-68
2022/05/26 03:21:37;;;;;;;3.03;1.63;;;16.00;79.40;;;;;;4928535;29;20556;-68
2022/05/26 03:24:02;;;;;;;2.27;1.27;;;16.10;80.00;;;;;;4935383;29;20315;-67
2022/05/26 03:26:28;;;;;;;2.53;1.00;;;16.10;80.00;;;;;;4928220;29;20219;-68
2022/05/26 03:28:53;;;;;;;4.87;1.57;;;16.20;79.50;;;;;;4935820;29;20580;-67
2022/05/26 03:31:19;;;;;;;2.80;1.37;;;16.10;79.90;;;;;;4928427;29;20218;-67
2022/05/26 03:41:58;;;;;;;2.30;1.00;;;16.00;80.00;;;;;;4925107;29;20206;-67
2022/05/26 03:44:27;;;;;;;2.37;0.93;;;16.10;80.50;;;;;;4943375;28;20247;-68
2022/05/26 03:46:54;;;;;;;1.17;0.90;;;16.10;80.40;;;;;;4935576;29;20215;-67
2022/05/26 03:49:19;;;;;;;1.23;0.90;;;16.10;80.70;;;;;;4936090;29;20207;-67
2022/05/26 03:51:45;;;;;;;2.77;1.53;;;16.10;81.00;;;;;;4938037;29;20222;-67
2022/05/26 03:54:10;;;;;;;1.23;1.13;;;16.10;80.90;;;;;;4930056;29;20203;-68
2022/05/26 03:56:36;;;;;;;1.80;1.17;;;16.10;80.50;;;;;;4942472;29;20213;-67
2022/05/26 03:59:02;;;;;;;2.50;1.40;;;16.20;81.00;;;;;;4935538;28;20211;-67
2022/05/26 04:01:28;;;;;;;1.43;1.00;;;16.20;80.80;;;;;;4943210;28;20191;-67
2022/05/26 04:03:55;;;;;;;1.27;1.17;;;16.10;81.00;;;;;;4933908;29;20202;-66
2022/05/26 04:06:21;;;;;;;1.10;1.00;;;16.10;81.50;;;;;;4939671;28;20980;-67
2022/05/26 04:08:46;;;;;;;1.23;1.00;;;16.20;81.70;;;;;;4930165;28;20203;-67
2022/05/26 04:11:12;;;;;;;1.20;0.93;;;16.20;81.60;;;;;;4934041;29;20198;-68
2022/05/26 04:13:37;;;;;;;1.03;1.00;;;16.20;81.90;;;;;;4939085;29;20203;-68
2022/05/26 04:16:03;;;;;;;2.00;0.90;;;16.20;82.00;;;;;;4930636;29;20203;-67
2022/05/26 04:18:29;;;;;;;1.50;1.10;;;16.20;82.40;;;;;;4938149;29;20273;-68
2022/05/26 04:21:04;;;;;;;1.37;1.13;;;16.20;82.90;;;;;;4930991;29;20270;-67
2022/05/26 04:23:29;;;;;;;3.53;1.50;;;16.10;83.50;;;;;;4923964;29;20213;-68
2022/05/26 04:25:55;;;;;;;1.60;1.50;;;16.10;83.70;;;;;;4930970;29;20191;-67
2022/05/26 04:28:20;;;;;;;1.40;1.17;;;16.10;84.20;;;;;;4941964;29;20210;-67
2022/05/26 04:30:45;;;;;;;1.47;1.30;;;16.10;84.10;;;;;;4940786;29;20565;-67
2022/05/26 04:33:11;;;;;;;6.83;1.67;;;16.20;84.90;;;;;;4940354;29;20212;-67
2022/05/26 04:35:36;;;;;;;1.93;1.73;;;16.20;84.90;;;;;;4936165;29;20209;-68
2022/05/26 04:38:02;;;;;;;2.87;1.30;;;16.10;85.00;;;;;;4942934;29;20207;-69
2022/05/26 04:40:30;;;;;;;1.17;1.07;;;16.10;85.40;;;;;;4946973;29;20202;-68
2022/05/26 04:42:55;;;;;;;1.47;1.37;;;16.10;86.00;;;;;;4929098;29;20644;-68
2022/05/26 04:45:21;;;;;;;1.33;1.23;;;16.10;86.30;;;;;;4934412;29;20198;-68
2022/05/26 04:47:47;;;;;;;1.30;1.30;;;16.10;86.60;;;;;;4937281;28;20207;-68
2022/05/26 04:50:12;;;;;;;1.53;1.43;;;16.20;87.00;;;;;;4941763;29;20227;-68
2022/05/26 04:52:39;;;;;;;2.10;1.97;;;16.20;87.10;;;;;;4940682;29;20650;-67
2022/05/26 04:55:05;;;;;;;2.40;1.50;;;16.20;87.20;;;;;;4934486;29;20710;-67
2022/05/26 04:57:31;;;;;;;3.33;1.63;;;16.20;87.40;;;;;;4937808;28;20202;-67
2022/05/26 04:59:57;;;;;;;1.60;1.50;;;16.20;87.90;;;;;;4933174;29;20622;-67
2022/05/26 05:02:23;;;;;;;3.67;1.83;;;16.20;88.20;;;;;;4936571;29;20308;-69
2022/05/26 05:04:49;;;;;;;1.63;1.53;;;16.20;88.40;;;;;;4937605;28;20656;-67
2022/05/26 05:07:17;;;;;;;1.83;1.73;;;16.20;89.00;;;;;;4939872;28;20287;-68
2022/05/26 05:09:43;;;;;;;3.80;1.67;;;16.20;89.30;;;;;;4937060;28;20197;-68
2022/05/26 05:12:13;;;;;;;1.77;1.50;;;16.20;89.20;;;;;;4933564;28;20198;-67
2022/05/26 05:14:44;;;;;;;3.20;1.70;;;16.10;89.60;;;;;;4939039;28;20417;-70
2022/05/26 05:17:10;;;;;;;2.43;1.73;;;16.10;90.00;;;;;;4923119;29;20211;-69
2022/05/26 05:19:35;;;;;;;1.77;1.67;;;16.10;90.00;;;;;;4935696;28;20305;-71
2022/05/26 05:22:24;;;;;;;1.60;1.50;;;16.20;90.00;;;;;;4929954;29;20892;-68
2022/05/26 05:25:01;;;;;;;2.83;1.70;;;16.30;90.10;;;;;;4937266;28;20191;-69
2022/05/26 05:27:54;;;;;;;2.57;2.13;;;16.30;90.10;;;;;;4936383;29;20245;-70
2022/05/26 05:30:28;;;;;;;1.70;1.60;;;16.40;90.30;;;;;;4922827;29;20301;-70
2022/05/26 05:33:10;;;;;;;1.97;1.70;;;16.40;90.30;;;;;;4922716;29;20205;-69
2022/05/26 05:35:46;;;;;;;4.10;2.07;;;16.30;90.70;;;;;;4928397;29;20230;-68
2022/05/26 05:38:13;;;;;;;4.60;1.53;;;16.40;91.00;;;;;;4923318;29;20284;-68
2022/05/26 05:40:38;;;;;;;2.87;2.07;;;16.50;91.10;;;;;;4936081;28;20252;-67
2022/05/26 05:43:04;;;;;;;1.77;1.67;;;16.50;91.00;;;;;;4930116;29;20195;-69
2022/05/26 05:45:30;;;;;;;1.50;1.40;;;16.60;91.20;;;;;;4932167;28;20191;-68
2022/05/26 05:47:55;;;;;;;5.07;2.23;;;16.80;91.10;;;;;;4940283;29;20257;-69
2022/05/26 05:50:21;;;;;;;4.50;1.80;;;16.90;91.00;;;;;;4941374;29;20701;-66
2022/05/26 05:52:46;;;;;;;3.07;1.93;;;17.00;91.10;;;;;;4927171;29;20226;-67
2022/05/26 05:55:12;;;;;;;2.03;1.90;;;16.70;91.30;;;;;;4931659;29;20304;-67
2022/05/26 05:57:37;;;;;;;2.00;1.90;;;16.70;91.50;;;;;;4933462;29;20202;-67
2022/05/26 06:00:05;;;;;;;3.23;2.43;;;16.70;91.70;;;;;;4932714;29;20214;-68
2022/05/26 06:02:31;;;;;;;2.50;2.20;;;16.70;92.00;;;;;;4936425;28;20200;-68
2022/05/26 06:04:57;;;;;;;2.03;1.77;;;16.70;92.10;;;;;;4936425;28;20224;-68
2022/05/26 06:07:23;;;;;;;2.03;1.80;;;16.60;92.40;;;;;;4935666;28;20209;-71
2022/05/26 06:09:50;;;;;;;2.47;2.27;;;16.60;92.50;;;;;;4948211;29;20191;-71
2022/05/26 06:12:16;;;;;;;4.77;3.10;;;16.60;92.60;;;;;;4927142;28;20305;-71
2022/05/26 06:14:42;;;;;;;2.63;2.00;;;16.70;92.80;;;;;;4943595;29;20862;-71
2022/05/26 06:17:09;;;;;;;2.93;2.23;;;16.90;92.80;;;;;;4940822;28;20294;-70
2022/05/26 06:19:35;;;;;;;6.93;1.63;;;16.70;93.00;;;;;;4938489;29;20202;-70
2022/05/26 06:22:16;;;;;;;4.93;2.97;;;16.70;93.40;;;;;;4937204;29;20209;-70
2022/05/26 06:24:42;;;;;;;2.97;2.67;;;16.70;93.60;;;;;;4935645;29;20193;-71
2022/05/26 06:29:55;;;;;;;3.67;2.87;;;16.70;93.90;;;;;;4943167;29;20197;-69
2022/05/26 06:37:51;;;;;;;5.53;3.93;;;16.90;94.50;;;;;;4931297;29;20272;-68
2022/05/26 06:40:18;;;;;;;5.50;3.77;;;16.80;94.80;;;;;;4940969;29;20589;-69
2022/05/26 06:42:44;;;;;;;4.00;3.60;;;16.70;94.90;;;;;;4926524;29;20246;-69
2022/05/26 06:45:11;;;;;;;6.57;4.67;;;16.80;95.30;;;;;;4935356;29;20205;-68
2022/05/26 06:47:36;;;;;;;2.37;2.27;;;17.00;95.70;;;;;;4940989;28;20277;-70
2022/05/26 06:50:02;;;;;;;2.60;2.40;;;17.00;95.30;;;;;;4936525;28;20191;-69
2022/05/26 06:52:28;;;;;;;2.33;2.23;;;17.10;95.50;;;;;;4931868;29;20693;-70
2022/05/26 06:54:54;;;;;;;3.87;3.57;;;17.00;95.80;;;;;;4935866;28;20641;-69
2022/05/26 06:57:19;;;;;;;4.67;3.47;;;16.80;96.20;;;;;;4931055;29;20206;-67
2022/05/26 06:59:45;;;;;;;4.07;3.10;;;16.40;96.90;;;;;;4932464;29;20574;-68
2022/05/26 07:02:13;;;;;;;3.30;3.00;;;16.40;97.30;;;;;;4929588;29;20198;-68
2022/05/26 07:04:40;;;;;;;4.60;3.20;;;16.50;97.90;;;;;;4933333;28;20190;-68
2022/05/26 07:07:06;;;;;;;4.57;3.60;;;16.40;98.20;;;;;;4931792;29;20751;-69
2022/05/26 07:09:32;;;;;;;3.17;2.80;;;16.30;98.70;;;;;;4937980;28;20202;-66
2022/05/26 07:11:58;;;;;;;5.53;3.80;;;16.40;98.60;;;;;;4927721;29;20225;-68
2022/05/26 07:14:24;;;;;;;5.23;4.13;;;16.40;99.20;;;;;;4939101;29;20646;-67
2022/05/26 07:16:50;;;;;;;4.50;3.77;;;16.20;99.90;;;;;;4926533;29;20818;-68
2022/05/26 07:19:17;;;;;;;4.37;4.07;;;16.00;99.90;;;;;;4938858;28;20265;-66
2022/05/26 07:21:46;;;;;;;6.47;4.60;;;15.80;99.90;;;;;;4928103;29;20345;-67
2022/05/26 07:24:12;;;;;;;4.73;4.40;;;15.40;99.90;;;;;;4922654;29;20226;-67
2022/05/26 07:26:38;;;;;;;6.77;4.10;;;15.40;99.90;;;;;;4938713;28;20206;-68
2022/05/26 07:29:04;;;;;;;4.87;4.47;;;15.40;99.90;;;;;;4928494;28;20215;-68
2022/05/26 07:31:30;;;;;;;6.47;5.20;;;15.30;99.90;;;;;;4933576;29;20261;-67
2022/05/26 07:33:55;;;;;;;6.43;5.60;;;15.20;99.90;;;;;;4935789;28;20207;-68
2022/05/26 07:41:58;;;;;;;8.20;7.47;;;14.50;99.90;;;;;;4933702;29;20784;-70
2022/05/26 07:44:25;;;;;;;7.93;7.13;;;14.60;99.90;;;;;;4936083;29;20190;-69
2022/05/26 07:46:51;;;;;;;14.47;12.23;;;14.80;99.90;;;;;;4930747;28;20264;-67
2022/05/26 07:49:17;;;;;;;8.20;6.00;;;15.10;99.90;;;;;;4939490;28;20178;-67
2022/05/26 07:51:43;;;;;;;6.50;5.90;;;15.40;99.90;;;;;;4931108;29;20231;-67
2022/05/26 07:54:08;;;;;;;6.23;5.80;;;15.50;99.90;;;;;;4935643;29;20578;-67
2022/05/26 07:56:39;;;;;;;5.50;4.93;;;15.60;99.90;;;;;;4943410;29;20679;-68
2022/05/26 07:59:07;;;;;;;5.80;5.40;;;15.70;99.90;;;;;;4930323;29;20233;-68
2022/05/26 08:01:33;;;;;;;6.10;5.60;;;15.60;99.90;;;;;;4936552;29;20293;-68
2022/05/26 08:03:59;;;;;;;6.10;5.50;;;15.60;99.90;;;;;;4935659;28;20302;-70
2022/05/26 08:06:25;;;;;;;4.73;4.43;;;15.80;99.90;;;;;;4935938;29;20736;-68
2022/05/26 08:08:51;;;;;;;5.70;4.63;;;16.00;99.90;;;;;;4934947;28;21016;-68
2022/05/26 08:11:17;;;;;;;6.47;4.57;;;16.20;99.90;;;;;;4931255;29;20210;-68
2022/05/26 08:13:42;;;;;;;4.07;3.57;;;16.10;99.90;;;;;;4937817;29;20215;-68
2022/05/26 08:16:08;;;;;;;3.67;3.40;;;15.80;99.90;;;;;;4930424;29;20677;-68
2022/05/26 08:18:35;;;;;;;6.17;4.33;;;16.00;99.90;;;;;;4937954;29;20217;-69
2022/05/26 08:21:12;;;;;;;4.13;3.10;;;16.10;99.90;;;;;;4930610;29;20203;-69
2022/05/26 08:23:38;;;;;;;3.23;2.73;;;16.10;99.90;;;;;;4926928;29;20466;-69
2022/05/26 08:26:04;;;;;;;2.93;2.70;;;16.10;99.90;;;;;;4942259;29;20727;-69
2022/05/26 08:28:30;;;;;;;4.20;3.07;;;16.20;99.90;;;;;;4932677;29;20302;-68
2022/05/26 08:30:56;;;;;;;6.87;3.90;;;16.30;99.90;;;;;;4930983;29;20249;-68
2022/05/26 08:33:21;;;;;;;4.10;3.70;;;16.40;99.90;;;;;;4938242;28;20242;-69
2022/05/26 08:35:47;;;;;;;3.40;3.10;;;16.50;99.90;;;;;;4930553;29;20213;-71
2022/05/26 08:38:12;;;;;;;2.87;2.63;;;16.50;99.90;;;;;;4935426;29;20962;-63
2022/05/26 08:40:48;;;;;;;2.13;2.03;;;16.70;99.90;;;;;;4937750;29;20323;-72
2022/05/26 08:43:21;;;;;;;2.73;2.23;;;16.90;99.90;;;;;;4924406;29;20248;-71
2022/05/26 08:45:52;;;;;;;1.43;1.43;;;17.00;99.90;;;;;;4917368;29;20186;-70
2022/05/26 08:48:49;;;;;;;2.67;1.80;;;17.00;99.90;;;;;;4931956;28;20580;-68
2022/05/26 08:51:40;;;;;;;1.57;1.43;;;17.20;99.90;;;;;;4943791;29;20732;-69
2022/05/26 08:54:10;;;;;;;2.03;1.83;;;17.30;99.90;;;;;;4941114;29;20760;-67
2022/05/26 08:56:35;;;;;;;1.53;1.43;;;17.60;99.90;;;;;;4930212;29;20199;-67
2022/05/26 08:59:08;;;;;;;4.17;1.13;;;17.60;99.90;;;;;;4940970;29;20720;-67
2022/05/26 09:01:34;;;;;;;2.60;1.73;;;17.80;99.90;;;;;;4925363;29;20183;-68
2022/05/26 09:04:00;;;;;;;1.20;1.20;;;17.70;99.90;;;;;;4937037;29;20524;-67
2022/05/26 09:06:27;;;;;;;1.13;0.90;;;17.80;99.90;;;;;;4942110;29;20198;-68
2022/05/26 09:14:33;;;;;;;1.67;1.57;;;18.00;99.90;;;;;;4937316;29;20214;-68
2022/05/26 09:17:04;;;;;;;4.33;2.90;;;17.90;99.90;;;;;;4934692;29;20205;-67
2022/05/26 09:19:46;;;;;;;2.37;2.07;;;18.10;99.90;;;;;;4942780;29;20217;-66
2022/05/26 09:22:44;;;;;;;2.93;1.70;;;18.20;99.90;;;;;;4935232;29;20253;-68
2022/05/26 09:25:13;;;;;;;1.67;1.50;;;18.20;99.90;;;;;;4936452;29;20200;-68
2022/05/26 09:27:47;;;;;;;1.60;1.50;;;18.40;99.90;;;;;;4938680;28;20522;-68
2022/05/26 09:30:33;;;;;;;4.43;3.13;;;18.10;99.90;;;;;;4932814;29;20225;-71
2022/05/26 09:33:00;;;;;;;1.20;1.20;;;18.40;99.90;;;;;;4933213;29;20210;-70
2022/05/26 09:35:29;;;;;;;3.33;1.30;;;18.30;99.90;;;;;;4929446;29;20302;-68
2022/05/26 09:38:03;;;;;;;5.77;1.50;;;18.10;99.90;;;;;;4927433;29;20235;-73
2022/05/26 09:40:36;;;;;;;1.30;1.10;;;18.10;99.90;;;;;;4929314;29;20243;-67
2022/05/26 09:43:08;;;;;;;2.83;1.30;;;18.10;99.90;;;;;;4935688;29;20206;-70
2022/05/26 09:45:47;;;;;;;2.20;2.00;;;18.00;99.90;;;;;;4929345;29;20195;-67
2022/05/26 09:48:30;;;;;;;2.60;1.70;;;18.30;99.80;;;;;;4937235;29;20207;-66
2022/05/26 09:51:33;;;;;;;2.60;1.93;;;18.60;99.50;;;;;;4939749;28;20314;-66
2022/05/26 09:53:59;;;;;;;3.30;1.90;;;18.40;99.10;;;;;;4936304;29;20198;-66
2022/05/26 09:56:38;;;;;;;2.40;2.10;;;18.50;99.30;;;;;;4936934;28;20629;-68
2022/05/26 09:59:38;;;;;;;1.50;1.40;;;18.70;99.00;;;;;;4930826;29;20233;-69
2022/05/26 10:02:13;;;;;;;4.33;3.93;;;18.80;99.00;;;;;;4913321;29;20180;-70
2022/05/26 10:04:57;;;;;;;2.07;1.40;;;18.40;98.60;;;;;;4937143;29;20297;-67
2022/05/26 10:08:01;;;;;;;2.03;1.83;;;18.40;98.70;;;;;;4918210;29;20191;-68
2022/05/26 10:10:34;;;;;;;3.87;1.40;;;18.60;98.90;;;;;;4945725;29;20182;-68
2022/05/26 10:13:20;;;;;;;2.13;1.27;;;18.60;98.70;;;;;;4927621;29;20240;-66
2022/05/26 10:16:14;;;;;;;2.10;1.67;;;18.70;98.90;;;;;;4928459;29;20293;-67
2022/05/26 10:19:00;;;;;;;1.93;1.77;;;18.70;99.30;;;;;;4939230;29;20258;-67
2022/05/26 10:21:44;;;;;;;3.77;1.57;;;18.60;98.60;;;;;;4937542;29;20195;-66
2022/05/26 10:24:41;;;;;;;2.10;1.73;;;18.40;99.00;;;;;;4936100;29;20218;-67
2022/05/26 10:27:13;;;;;;;3.00;2.30;;;18.40;99.00;;;;;;4928968;29;20207;-64
2022/05/26 10:30:04;;;;;;;3.70;1.80;;;18.30;99.10;;;;;;4934046;28;20192;-67
2022/05/26 10:32:53;;;;;;;2.20;1.67;;;18.40;99.00;;;;;;4933968;29;20214;-66
2022/05/26 10:35:21;;;;;;;2.37;2.17;;;18.40;98.50;;;;;;4920295;29;20302;-66
2022/05/26 10:38:23;;;;;;;2.37;1.60;;;18.40;98.60;;;;;;4925766;29;20215;-67
2022/05/26 10:40:58;;;;;;;4.37;2.30;;;18.20;98.40;;;;;;4924706;29;20257;-66
2022/05/26 10:43:35;;;;;;;1.97;1.87;;;18.20;98.30;;;;;;4930859;29;20196;-66
2022/05/26 10:46:03;;;;;;;2.30;2.10;;;18.50;98.20;;;;;;4934252;29;20193;-68
2022/05/26 10:48:53;;;;;;;5.23;2.73;;;18.80;97.80;;;;;;4929230;28;20207;-68
2022/05/26 10:51:27;;;;;;;2.13;1.97;;;19.30;96.70;;;;;;4934124;29;20229;-69
2022/05/26 10:53:58;;;;;;;3.33;2.07;;;19.30;97.30;;;;;;4935028;29;20198;-68
2022/05/26 10:56:30;;;;;;;4.87;1.77;;;19.40;96.40;;;;;;4927511;29;20189;-68
2022/05/26 10:59:13;;;;;;;4.10;2.00;;;19.30;96.50;;;;;;4926470;29;20233;-68
2022/05/26 11:01:45;;;;;;;2.10;1.90;;;19.00;97.00;;;;;;4929459;29;20184;-70
2022/05/26 11:04:24;;;;;;;2.30;1.63;;;19.30;96.70;;;;;;4928082;29;20197;-72
2022/05/26 11:06:53;;;;;;;2.33;1.90;;;19.30;96.00;;;;;;4922880;29;20271;-68
2022/05/26 11:09:34;;;;;;;2.27;1.90;;;19.20;95.70;;;;;;4937752;28;20234;-68
2022/05/26 11:12:03;;;;;;;2.10;1.90;;;19.30;95.50;;;;;;4942699;29;20622;-67
2022/05/26 11:17:47;;;;;;;6.37;2.57;;;19.50;95.50;;;;;;4927562;29;20709;-69
2022/05/26 11:20:22;;;;;;;5.03;2.63;;;19.50;95.20;;;;;;4925795;29;20232;-67
2022/05/26 11:22:51;;;;;;;2.63;1.93;;;19.40;95.40;;;;;;4941634;28;20220;-67
2022/05/26 11:25:25;;;;;;;1.97;1.80;;;19.30;95.40;;;;;;4931555;29;20193;-65
2022/05/26 11:27:56;;;;;;;2.90;2.10;;;19.40;95.10;;;;;;4928122;29;20201;-67
2022/05/26 11:36:13;;;;;;;1.67;1.57;;;20.10;94.00;;;;;;4944542;29;20216;-70
2022/05/26 11:38:45;;;;;;;4.07;2.10;;;20.00;93.40;;;;;;4927888;29;20218;-70
2022/05/26 11:41:21;;;;;;;2.33;1.73;;;19.80;93.40;;;;;;4918347;29;20636;-70
2022/05/26 11:44:02;;;;;;;4.20;2.00;;;19.30;93.50;;;;;;4942823;29;20200;-72
2022/05/26 11:46:47;;;;;;;2.37;1.93;;;19.40;93.70;;;;;;4931272;29;20278;-69
2022/05/26 11:49:48;;;;;;;4.10;1.50;;;19.10;93.60;;;;;;4912717;29;20194;-69
2022/05/26 11:52:40;;;;;;;5.87;2.23;;;19.10;94.20;;;;;;4923041;29;20249;-66
2022/05/26 11:55:10;;;;;;;3.57;2.03;;;19.40;93.90;;;;;;4939374;29;20224;-71
2022/05/26 11:57:48;;;;;;;3.10;1.60;;;19.60;92.60;;;;;;4937919;28;20729;-66
2022/05/26 12:00:23;;;;;;;4.47;2.33;;;20.20;91.90;;;;;;4933019;29;20757;-77
2022/05/26 12:03:12;;;;;;;;;;;20.60;91.10;;;;;;4929712;29;20209;-64
2022/05/26 12:05:37;;;;;;;;;;;20.20;90.30;;;;;;4938554;29;19937;-63
2022/05/26 12:08:05;;;;;;;;;;;20.00;90.20;;;;;;4929866;29;20370;-65
2022/05/26 12:10:38;;;;;;;;;;;19.90;90.30;;;;;;4932101;29;19915;-65
2022/05/26 12:13:19;;;;;;;;;;;20.20;90.30;;;;;;4945383;29;19918;-64
2022/05/26 12:16:03;;;;;;;;;;;20.60;89.20;;;;;;4931570;29;19914;-64
2022/05/26 12:18:58;;;;;;;;;;;20.60;87.90;;;;;;4934253;29;19917;-63
2022/05/26 12:21:26;;;;;;;;;;;21.40;86.20;;;;;;4927043;28;19910;-63
2022/05/26 12:23:52;;;;;;;;;;;20.30;86.30;;;;;;4933540;29;19915;-65
2022/05/26 12:26:46;;;;;;;;;;;20.40;88.80;;;;;;4935432;28;19964;-64
2022/05/26 12:29:31;;;;;;;;;;;21.20;87.40;;;;;;4945998;28;20376;-66
2022/05/26 12:32:22;;;;;;;;;;;21.00;84.90;;;;;;4930736;29;19914;-64
2022/05/26 12:35:01;;;;;;;;;;;21.30;81.40;;;;;;4918801;29;19915;-64
2022/05/26 12:37:35;;;;;;;;;;;21.10;83.50;;;;;;4935072;29;19914;-65
2022/05/26 12:40:11;;;;;;;;;;;21.60;81.30;;;;;;4936316;29;19934;-64
2022/05/26 12:42:47;;;;;;;;;;;21.10;81.30;;;;;;4933719;29;20012;-65
2022/05/26 12:45:17;;;;;;;;;;;21.10;81.70;;;;;;4939184;29;19911;-64
2022/05/26 12:48:05;;;;;;;1054.35;971.00;;;20.80;83.20;;;;;;4927460;29;20425;-64
2022/05/26 12:50:38;;;;;;;983.57;901.80;;;20.60;83.40;;;;;;4929808;29;20617;-65
2022/05/26 12:53:12;;;;;;;1104.03;998.80;;;21.50;83.30;;;;;;4927972;29;20436;-63
2022/05/26 12:55:59;;;;;;;455.20;422.33;;;22.80;80.70;;;;;;4937376;29;20225;-63
2022/05/26 12:58:31;;;;;;;515.85;481.35;;;22.40;79.10;;;;;;4933143;29;20314;-64
2022/05/26 13:00:56;;;;;;;943.77;869.00;;;21.10;80.30;;;;;;4927982;29;20668;-62
2022/05/26 13:03:35;;;;;;;1059.90;974.03;;;21.00;80.00;;;;;;4931901;29;20203;-63
2022/05/26 13:06:20;;;;;;;1098.00;998.43;;;21.00;79.90;;;;;;4929131;29;20617;-63
2022/05/26 13:08:53;;;;;;;1029.43;939.03;;;20.50;79.00;;;;;;4927961;29;20209;-62
2022/05/26 13:11:25;;;;;;;986.33;900.40;;;20.30;79.80;;;;;;4928608;29;20189;-62
2022/05/26 13:13:54;;;;;;;906.43;831.57;;;20.10;80.80;;;;;;4931733;29;20242;-62
2022/05/26 13:16:31;;;;;;;1033.10;934.60;;;20.10;81.60;;;;;;4929080;29;20293;-62
2022/05/26 13:19:14;;;;;;;1010.33;914.00;;;20.10;80.40;;;;;;4927918;29;20209;-62
2022/05/26 13:21:42;;;;;;;1043.30;946.30;;;21.00;79.50;;;;;;4929990;29;20178;-62
2022/05/26 13:24:20;;;;;;;1075.50;980.30;;;21.70;76.70;;;;;;4927856;29;20298;-62
2022/05/26 13:26:47;;;;;;;952.77;873.70;;;21.60;74.50;;;;;;4927408;29;20189;-62
2022/05/26 13:29:18;;;;;;;1078.97;984.67;;;21.40;74.60;;;;;;4927448;29;20605;-62
2022/05/26 13:34:32;;;;;;;1103.47;999.23;;;21.00;75.60;;;;;;4929421;29;20192;-62
2022/05/26 13:37:15;;;;;;;1083.73;991.37;;;20.70;74.50;;;;;;4929684;29;20685;-62
2022/05/26 13:39:40;;;;;;;1075.27;975.63;;;20.80;75.40;;;;;;4928489;29;20216;-73
2022/05/26 13:42:06;;;;;;;791.07;716.03;;;20.60;75.10;;;;;;4927436;29;20201;-61
2022/05/26 13:44:43;;;;;;;945.97;866.90;;;20.30;72.80;;;;;;4929576;29;20638;-61
2022/05/26 13:47:12;;;;;;;1057.60;961.60;;;20.50;73.80;;;;;;4927093;29;20215;-61
2022/05/26 13:49:43;;;;;;;865.63;796.87;;;21.20;72.10;;;;;;4929452;29;20217;-60
2022/05/26 13:52:20;;;;;;;874.67;798.23;;;22.10;71.40;;;;;;4928383;29;20245;-61
2022/05/26 13:55:03;;;;;;;134.00;124.27;;;22.20;68.60;;;;;;5062532;28;20603;-62